EIN4CE EIDW-LIPZ
Flight info
| Callsign | EIN4CE |
|---|---|
| Flight time | N/A |
| Altitude | 37000 |
| Route | ENDEQ1E ENDEQ Q36 ALAVA Z195 MALUD UL975 WAL M16 DOLAS DCT NAVPI DCT UMUPU DCT TUSUK DCT BATUB M738 NATAG DCT LORLO DCT UNTAD DCT NEGIK DCT ADOSA/N0396F190 L615 IBUGO T134 ALBET ALBET2E |
| Aircraft | A320/M-SDE3FGHIRWY/LB1 |
Departure
| Time | 2026-04-30 14:21 |
|---|---|
| Airport | Dublin Airport (EIDW) |
Arrival
| Time | N/A |
|---|---|
| Airport | Venice Marco Polo Airport (LIPZ) |
| Time | Latitude | Longitude | Altitude | Speed | Heading |
|---|---|---|---|---|---|
| 2026-04-30 13:59 | 53.42249 | -6.23839 | 218 ft | 0 kts | 27° |
| 2026-04-30 14:10 | 53.42243 | -6.23844 | 214 ft | 4 kts | 27° |
| 2026-04-30 14:10 | 53.42224 | -6.23861 | 219 ft | 4 kts | 19° |
| 2026-04-30 14:10 | 53.42208 | -6.23857 | 211 ft | 4 kts | 298° |
| 2026-04-30 14:10 | 53.42198 | -6.23825 | 214 ft | 1 kts | 297° |
| 2026-04-30 14:13 | 53.42202 | -6.23838 | 211 ft | 4 kts | 297° |
| 2026-04-30 14:14 | 53.42224 | -6.23910 | 211 ft | 10 kts | 297° |
| 2026-04-30 14:14 | 53.42257 | -6.24044 | 211 ft | 15 kts | 275° |
| 2026-04-30 14:14 | 53.42199 | -6.24191 | 211 ft | 16 kts | 222° |
| 2026-04-30 14:14 | 53.42159 | -6.24338 | 211 ft | 14 kts | 272° |
| 2026-04-30 14:15 | 53.42169 | -6.24515 | 211 ft | 18 kts | 275° |
| 2026-04-30 14:15 | 53.42182 | -6.24746 | 211 ft | 22 kts | 275° |
| 2026-04-30 14:15 | 53.42196 | -6.25020 | 211 ft | 24 kts | 275° |
| 2026-04-30 14:15 | 53.42213 | -6.25327 | 217 ft | 27 kts | 275° |
| 2026-04-30 14:16 | 53.42227 | -6.25590 | 211 ft | 21 kts | 275° |
| 2026-04-30 14:16 | 53.42240 | -6.25819 | 211 ft | 17 kts | 275° |
| 2026-04-30 14:16 | 53.42251 | -6.26018 | 216 ft | 18 kts | 275° |
| 2026-04-30 14:16 | 53.42263 | -6.26243 | 211 ft | 19 kts | 275° |
| 2026-04-30 14:17 | 53.42275 | -6.26462 | 215 ft | 18 kts | 275° |
| 2026-04-30 14:17 | 53.42287 | -6.26670 | 211 ft | 16 kts | 275° |
| 2026-04-30 14:17 | 53.42299 | -6.26884 | 211 ft | 19 kts | 275° |
| 2026-04-30 14:17 | 53.42311 | -6.27107 | 216 ft | 18 kts | 275° |
| 2026-04-30 14:18 | 53.42323 | -6.27331 | 215 ft | 19 kts | 275° |
| 2026-04-30 14:18 | 53.42335 | -6.27556 | 211 ft | 18 kts | 275° |
| 2026-04-30 14:18 | 53.42360 | -6.28006 | 211 ft | 19 kts | 275° |
| 2026-04-30 14:19 | 53.42381 | -6.28387 | 214 ft | 14 kts | 275° |
| 2026-04-30 14:19 | 53.42391 | -6.28552 | 211 ft | 16 kts | 275° |
| 2026-04-30 14:19 | 53.42402 | -6.28763 | 211 ft | 19 kts | 275° |
| 2026-04-30 14:20 | 53.42409 | -6.28984 | 211 ft | 18 kts | 257° |
| 2026-04-30 14:20 | 53.42310 | -6.29075 | 214 ft | 18 kts | 174° |
| 2026-04-30 14:20 | 53.42227 | -6.28729 | 211 ft | 36 kts | 95° |
| 2026-04-30 14:21 | 53.42182 | -6.27913 | 212 ft | 103 kts | 95° |
| 2026-04-30 14:21 | 53.42100 | -6.26405 | 215 ft | 155 kts | 95° |
| 2026-04-30 14:21 | 53.41908 | -6.22930 | 881 ft | 183 kts | 95° |
| 2026-04-30 14:22 | 53.41832 | -6.21531 | 1465 ft | 181 kts | 97° |
| 2026-04-30 14:22 | 53.41512 | -6.16006 | 2554 ft | 231 kts | 101° |
| 2026-04-30 14:22 | 53.41404 | -6.14156 | 3027 ft | 240 kts | 101° |
| 2026-04-30 14:23 | 53.41350 | -6.13209 | 3318 ft | 243 kts | 101° |